Time;durP1;ratioP1;P1;durP2;ratioP2;P2;SDS_P1;SDS_P2;PMS_P1;PMS_P2;Temp;Humidity;BMP_temperature;BMP_pressure;BME280_temperature;BME280_humidity;BME280_pressure;Samples;Min_cycle;Max_cycle;Signal;HPM_P1;HPM_P2
2023/05/08 00:01:06;;;;;;;7.93;4.40;;;12.90;99.90;;;;;;5086078;28;20126;-79
2023/05/08 00:03:32;;;;;;;9.48;4.53;;;12.90;99.90;;;;;;5133394;27;20028;-80
2023/05/08 00:05:58;;;;;;;9.15;4.70;;;12.80;99.90;;;;;;5115032;27;20042;-79
2023/05/08 00:08:23;;;;;;;9.40;4.78;;;12.80;99.90;;;;;;5102027;28;20453;-80
2023/05/08 00:10:49;;;;;;;9.27;4.72;;;12.80;99.90;;;;;;5101474;28;20040;-80
2023/05/08 00:13:15;;;;;;;12.40;5.38;;;12.80;99.90;;;;;;5100649;28;20031;-80
2023/05/08 00:15:40;;;;;;;11.65;5.07;;;12.70;99.90;;;;;;5098783;27;20081;-79
2023/05/08 00:18:06;;;;;;;10.32;4.53;;;12.70;99.90;;;;;;5086652;28;20481;-80
2023/05/08 00:20:33;;;;;;;8.48;4.65;;;12.70;99.90;;;;;;5102010;28;20048;-80
2023/05/08 00:22:58;;;;;;;9.65;4.88;;;12.70;99.90;;;;;;5082448;28;20028;-80
2023/05/08 00:25:25;;;;;;;11.50;5.25;;;12.70;99.90;;;;;;5134218;27;20036;-79
2023/05/08 00:28:06;;;;;;;8.77;4.30;;;12.70;99.90;;;;;;5091022;27;20520;-81
2023/05/08 00:30:32;;;;;;;10.20;4.95;;;12.70;99.90;;;;;;5077300;28;20510;-81
2023/05/08 00:32:58;;;;;;;8.15;4.57;;;12.70;99.90;;;;;;5080480;28;20046;-81
2023/05/08 00:35:23;;;;;;;8.82;5.05;;;12.60;99.90;;;;;;5078592;28;20047;-79
2023/05/08 00:37:49;;;;;;;10.10;5.15;;;12.70;99.90;;;;;;5081670;28;20063;-78
2023/05/08 00:40:15;;;;;;;9.52;4.82;;;12.60;99.90;;;;;;5063342;28;20398;-78
2023/05/08 00:42:41;;;;;;;9.50;5.05;;;12.70;99.90;;;;;;5077334;28;20036;-78
2023/05/08 00:45:07;;;;;;;8.05;4.10;;;12.70;99.90;;;;;;5109578;27;20111;-78
2023/05/08 00:47:34;;;;;;;9.80;4.45;;;12.60;99.90;;;;;;5072268;28;20029;-78
2023/05/08 00:50:00;;;;;;;11.73;5.55;;;12.60;99.90;;;;;;5079624;28;20035;-78
2023/05/08 00:52:28;;;;;;;11.43;5.28;;;12.60;99.90;;;;;;5061738;28;20029;-78
2023/05/08 00:54:54;;;;;;;8.98;4.45;;;12.50;99.90;;;;;;5060345;28;20169;-78
2023/05/08 00:57:21;;;;;;;10.60;5.05;;;12.60;99.90;;;;;;5110835;27;20051;-81
2023/05/08 00:59:48;;;;;;;10.55;5.18;;;12.50;99.90;;;;;;5064236;28;20036;-81
2023/05/08 01:02:14;;;;;;;10.70;5.30;;;12.60;99.90;;;;;;5061592;28;20174;-81
2023/05/08 01:04:43;;;;;;;9.40;4.88;;;12.50;99.90;;;;;;5078219;28;20029;-81
2023/05/08 01:07:10;;;;;;;9.90;4.82;;;12.50;99.90;;;;;;5081161;28;20439;-81
2023/05/08 01:09:35;;;;;;;10.38;4.22;;;12.50;99.90;;;;;;5081689;28;20032;-81
2023/05/08 01:12:14;;;;;;;10.50;4.82;;;12.40;99.90;;;;;;5060241;28;20055;-79
2023/05/08 01:14:50;;;;;;;9.90;5.10;;;12.40;99.90;;;;;;5078658;28;20033;-78
2023/05/08 01:17:26;;;;;;;8.93;5.10;;;12.40;99.90;;;;;;5062199;28;20431;-78
2023/05/08 01:20:23;;;;;;;8.82;4.90;;;12.40;99.90;;;;;;5059290;28;20051;-78
2023/05/08 01:23:09;;;;;;;9.50;4.47;;;12.30;99.90;;;;;;5078562;28;20045;-78
2023/05/08 01:25:35;;;;;;;;;;;12.30;99.90;;;;;;5078749;28;20623;-78
2023/05/08 01:28:32;;;;;;;8.13;4.18;;;12.30;99.90;;;;;;5080022;28;19921;-78
2023/05/08 01:31:34;;;;;;;9.77;4.95;;;12.30;99.90;;;;;;5073682;28;20422;-79
2023/05/08 01:34:07;;;;;;;9.57;4.75;;;12.30;99.90;;;;;;5105825;28;20052;-79
2023/05/08 01:36:55;;;;;;;12.02;5.10;;;12.20;99.90;;;;;;5064122;28;20036;-80
2023/05/08 01:39:43;;;;;;;8.20;4.78;;;12.20;99.90;;;;;;5046567;28;20086;-79
2023/05/08 01:42:39;;;;;;;10.93;5.03;;;12.20;99.90;;;;;;5039203;28;20081;-79
2023/05/08 01:45:12;;;;;;;10.45;4.57;;;12.20;99.90;;;;;;5098000;28;20131;-79
2023/05/08 01:47:40;;;;;;;10.95;5.13;;;12.20;99.90;;;;;;5056899;28;20041;-79
2023/05/08 01:50:14;;;;;;;10.30;5.20;;;12.10;99.90;;;;;;5042707;28;20079;-79
2023/05/08 01:52:47;;;;;;;10.65;5.15;;;12.20;99.90;;;;;;5048292;28;20607;-79
2023/05/08 01:55:20;;;;;;;11.85;5.82;;;12.10;99.90;;;;;;5065186;28;20036;-79
2023/05/08 01:57:52;;;;;;;12.00;5.50;;;12.10;99.90;;;;;;5094074;28;20535;-79
2023/05/08 02:00:20;;;;;;;10.98;5.25;;;12.10;99.90;;;;;;5063575;28;20152;-79
2023/05/08 02:02:48;;;;;;;10.43;5.13;;;12.10;99.90;;;;;;5059525;28;20189;-79
2023/05/08 02:05:15;;;;;;;11.52;5.72;;;12.00;99.90;;;;;;5045781;28;20245;-79
2023/05/08 02:07:42;;;;;;;11.00;5.43;;;12.00;99.90;;;;;;5047525;28;20409;-79
2023/05/08 02:10:10;;;;;;;10.93;5.03;;;12.00;99.90;;;;;;5060705;28;20090;-79
2023/05/08 02:12:37;;;;;;;10.75;5.25;;;12.00;99.90;;;;;;5064315;28;20036;-79
2023/05/08 02:15:06;;;;;;;10.10;4.90;;;12.00;99.90;;;;;;5063884;28;20044;-79
2023/05/08 02:17:33;;;;;;;9.38;4.53;;;11.90;99.90;;;;;;5047196;28;20482;-79
2023/05/08 02:20:02;;;;;;;10.10;5.07;;;11.90;99.90;;;;;;5064631;28;20512;-79
2023/05/08 02:22:30;;;;;;;9.00;4.93;;;11.90;99.90;;;;;;5062533;28;20044;-79
2023/05/08 02:24:56;;;;;;;12.50;5.45;;;11.90;99.90;;;;;;5061477;28;20052;-79
2023/05/08 02:27:26;;;;;;;8.23;4.15;;;11.90;99.90;;;;;;5064294;28;20044;-79
2023/05/08 02:29:53;;;;;;;8.43;4.30;;;11.90;99.90;;;;;;5046146;28;20502;-79
2023/05/08 02:32:20;;;;;;;10.13;4.55;;;11.90;99.90;;;;;;5047354;28;20130;-79
2023/05/08 02:34:48;;;;;;;10.32;4.60;;;11.80;99.90;;;;;;5065736;28;20123;-79
2023/05/08 02:37:17;;;;;;;9.57;4.45;;;11.80;99.90;;;;;;5062418;28;20037;-79
2023/05/08 02:39:44;;;;;;;11.18;4.65;;;11.80;99.90;;;;;;5045315;28;20043;-79
2023/05/08 02:42:10;;;;;;;8.25;4.50;;;11.80;99.90;;;;;;5039757;28;20039;-79
2023/05/08 02:44:36;;;;;;;8.48;4.22;;;11.70;99.90;;;;;;5079227;28;20036;-79
2023/05/08 02:47:20;;;;;;;10.05;4.68;;;11.70;99.90;;;;;;5063624;28;20045;-79
2023/05/08 02:49:59;;;;;;;8.20;4.15;;;11.60;99.90;;;;;;5062092;28;20033;-79
2023/05/08 02:52:29;;;;;;;9.38;4.32;;;11.70;99.90;;;;;;5044818;28;20046;-79
2023/05/08 02:54:58;;;;;;;11.57;5.03;;;11.60;99.90;;;;;;5065167;28;20037;-79
2023/05/08 02:57:36;;;;;;;9.25;5.00;;;11.60;99.90;;;;;;5055947;28;20128;-79
2023/05/08 03:00:04;;;;;;;9.88;4.45;;;11.50;99.90;;;;;;5063105;28;20045;-79
2023/05/08 03:02:48;;;;;;;8.38;4.40;;;11.50;99.90;;;;;;5046496;28;20569;-79
2023/05/08 03:05:23;;;;;;;8.57;4.53;;;11.60;99.90;;;;;;5046421;28;20331;-79
2023/05/08 03:07:51;;;;;;;10.43;4.47;;;11.50;99.90;;;;;;5060217;28;20474;-79
2023/05/08 03:10:20;;;;;;;7.85;4.35;;;11.50;99.90;;;;;;5063459;28;20039;-79
2023/05/08 03:12:49;;;;;;;9.60;4.18;;;11.50;99.90;;;;;;5074724;28;20142;-79
2023/05/08 03:15:35;;;;;;;7.63;4.03;;;11.50;99.90;;;;;;5078343;28;20032;-79
2023/05/08 03:18:09;;;;;;;9.77;4.28;;;11.40;99.90;;;;;;5041081;28;20115;-79
2023/05/08 03:20:38;;;;;;;9.25;4.95;;;11.40;99.90;;;;;;5042205;28;20078;-79
2023/05/08 03:23:07;;;;;;;8.48;4.10;;;11.40;99.90;;;;;;5096588;28;20165;-79
2023/05/08 03:25:34;;;;;;;9.43;4.40;;;11.40;99.90;;;;;;5060018;28;20078;-79
2023/05/08 03:28:03;;;;;;;9.98;4.75;;;11.30;99.90;;;;;;5043470;28;20462;-79
2023/05/08 03:30:30;;;;;;;12.23;5.00;;;11.30;99.90;;;;;;5062701;28;20391;-79
2023/05/08 03:32:57;;;;;;;9.45;4.82;;;11.30;99.90;;;;;;5062373;28;20376;-79
2023/05/08 03:35:23;;;;;;;8.75;4.72;;;11.30;99.90;;;;;;5045229;28;20040;-79
2023/05/08 03:37:49;;;;;;;11.70;5.18;;;11.30;99.90;;;;;;5061836;28;20051;-79
2023/05/08 03:40:15;;;;;;;14.20;4.97;;;11.30;99.90;;;;;;5064315;28;20055;-79
2023/05/08 03:42:41;;;;;;;9.48;5.20;;;11.30;99.90;;;;;;5060670;28;20117;-79
2023/05/08 03:45:09;;;;;;;10.90;4.65;;;11.30;99.90;;;;;;5061758;28;20383;-79
2023/05/08 03:47:36;;;;;;;10.77;5.25;;;11.30;99.90;;;;;;5061680;28;20080;-79
2023/05/08 03:50:02;;;;;;;9.82;4.78;;;11.30;99.90;;;;;;5055842;28;20035;-79
2023/05/08 03:52:29;;;;;;;10.05;5.07;;;11.30;99.90;;;;;;5061467;28;20040;-79
2023/05/08 03:54:54;;;;;;;12.40;5.32;;;11.30;99.90;;;;;;5046131;28;20473;-79
2023/05/08 03:57:21;;;;;;;10.30;4.95;;;11.30;99.90;;;;;;5063652;28;20109;-79
2023/05/08 04:00:00;;;;;;;10.85;5.05;;;11.20;99.90;;;;;;5060607;28;20174;-79
2023/05/08 04:02:50;;;;;;;8.82;4.70;;;11.20;99.90;;;;;;5057221;28;20040;-79
2023/05/08 04:05:46;;;;;;;11.23;4.97;;;11.20;99.90;;;;;;5096548;28;20081;-79
2023/05/08 04:08:21;;;;;;;9.00;5.13;;;11.20;99.90;;;;;;5043061;28;20083;-79
2023/05/08 04:11:03;;;;;;;9.13;4.97;;;11.20;99.90;;;;;;5063152;28;20048;-79
2023/05/08 04:13:31;;;;;;;8.85;4.35;;;11.10;99.90;;;;;;5073718;28;20425;-79
2023/05/08 04:16:12;;;;;;;9.90;4.60;;;11.10;99.90;;;;;;5063368;28;20051;-79
2023/05/08 04:18:44;;;;;;;9.18;4.60;;;11.10;99.90;;;;;;5060949;28;20172;-79
2023/05/08 04:21:12;;;;;;;12.18;4.75;;;11.10;99.90;;;;;;5058864;28;20036;-79
2023/05/08 04:23:40;;;;;;;12.02;4.93;;;11.10;99.90;;;;;;5045442;28;20147;-79
2023/05/08 04:26:07;;;;;;;7.00;3.75;;;11.10;99.90;;;;;;5046027;28;20056;-79
2023/05/08 04:28:33;;;;;;;10.85;5.32;;;11.10;99.90;;;;;;5060258;28;20037;-79
2023/05/08 04:31:01;;;;;;;7.25;4.05;;;11.00;99.90;;;;;;5059958;28;20131;-79
2023/05/08 04:33:27;;;;;;;8.23;4.40;;;11.00;99.90;;;;;;5044505;28;20820;-79
2023/05/08 04:35:53;;;;;;;7.57;3.92;;;11.10;99.90;;;;;;5046471;28;20395;-79
2023/05/08 04:38:19;;;;;;;9.40;4.78;;;11.10;99.90;;;;;;5043063;28;20056;-79
2023/05/08 04:40:44;;;;;;;9.45;4.38;;;11.10;99.90;;;;;;5057494;28;20028;-79
2023/05/08 04:43:10;;;;;;;9.98;4.38;;;11.10;99.90;;;;;;5044091;28;20029;-79
2023/05/08 04:45:35;;;;;;;8.77;4.20;;;11.10;99.90;;;;;;5044585;28;20110;-78
2023/05/08 04:48:01;;;;;;;8.20;4.75;;;11.10;99.90;;;;;;5091801;28;20041;-79
2023/05/08 04:50:26;;;;;;;8.15;4.47;;;11.20;99.90;;;;;;5061629;28;20040;-79
2023/05/08 04:52:52;;;;;;;8.23;4.47;;;11.20;99.90;;;;;;5058340;28;20086;-79
2023/05/08 04:55:18;;;;;;;10.93;4.90;;;11.20;99.90;;;;;;5063432;28;20043;-79
2023/05/08 04:57:43;;;;;;;9.27;4.45;;;11.10;99.90;;;;;;5062026;28;20029;-79
2023/05/08 05:00:09;;;;;;;10.07;4.40;;;11.20;99.90;;;;;;5060640;28;20062;-79
2023/05/08 05:02:35;;;;;;;7.60;4.07;;;11.20;99.90;;;;;;5044732;28;20032;-79
2023/05/08 05:05:00;;;;;;;9.10;4.70;;;11.10;99.90;;;;;;5063672;28;20043;-79
2023/05/08 05:07:26;;;;;;;9.40;4.15;;;11.10;99.90;;;;;;5041746;28;20215;-79
2023/05/08 05:09:52;;;;;;;8.93;4.78;;;11.10;99.90;;;;;;5061947;28;20672;-79
2023/05/08 05:12:17;;;;;;;7.07;3.90;;;11.20;99.90;;;;;;5060737;28;20072;-79
2023/05/08 05:14:43;;;;;;;7.22;3.95;;;11.20;99.90;;;;;;5062219;28;20036;-79
2023/05/08 05:17:08;;;;;;;7.88;4.15;;;11.20;99.90;;;;;;5045713;28;20280;-79
2023/05/08 05:19:34;;;;;;;9.20;3.97;;;11.20;99.90;;;;;;5060855;28;20509;-79
2023/05/08 05:21:59;;;;;;;8.10;4.40;;;11.20;99.90;;;;;;5064732;28;20504;-79
2023/05/08 05:24:25;;;;;;;7.75;4.00;;;11.20;99.90;;;;;;5066976;28;20032;-79
2023/05/08 05:26:51;;;;;;;7.90;4.20;;;11.20;99.90;;;;;;5063246;28;20975;-79
2023/05/08 05:29:16;;;;;;;8.10;4.25;;;11.20;99.90;;;;;;5061411;28;20052;-79
2023/05/08 05:31:42;;;;;;;8.30;4.38;;;11.20;99.90;;;;;;5066602;28;20502;-79
2023/05/08 05:34:08;;;;;;;11.00;5.20;;;11.20;99.90;;;;;;5045926;28;20064;-79
2023/05/08 05:36:33;;;;;;;6.88;3.58;;;11.20;99.90;;;;;;5050696;28;20394;-79
2023/05/08 05:38:59;;;;;;;7.78;4.00;;;11.40;99.90;;;;;;5066039;28;20417;-79
2023/05/08 05:41:24;;;;;;;8.55;4.18;;;11.60;99.90;;;;;;5076294;28;20067;-79
2023/05/08 05:43:50;;;;;;;8.32;4.18;;;11.90;99.90;;;;;;5061145;28;20043;-79
2023/05/08 05:46:16;;;;;;;8.82;3.80;;;12.20;99.90;;;;;;5065400;28;20029;-79
2023/05/08 05:48:42;;;;;;;7.25;3.97;;;12.50;99.90;;;;;;5047599;28;20025;-79
2023/05/08 05:51:07;;;;;;;10.98;4.68;;;12.60;99.90;;;;;;5098149;28;20517;-79
2023/05/08 05:53:33;;;;;;;7.82;3.85;;;12.50;99.90;;;;;;5044661;28;20040;-79
2023/05/08 05:55:59;;;;;;;7.85;4.35;;;12.40;99.90;;;;;;5079759;28;20040;-79
2023/05/08 05:58:24;;;;;;;7.35;4.13;;;12.30;99.90;;;;;;5044699;28;20036;-79
2023/05/08 06:00:50;;;;;;;8.43;4.25;;;12.20;99.90;;;;;;5063117;28;20032;-79
2023/05/08 06:03:16;;;;;;;7.60;4.50;;;12.00;99.90;;;;;;5061755;28;20032;-79
2023/05/08 06:05:41;;;;;;;9.13;4.10;;;12.00;99.90;;;;;;5047542;28;20266;-79
2023/05/08 06:08:07;;;;;;;7.97;4.00;;;11.90;99.90;;;;;;5064104;28;20040;-79
2023/05/08 06:10:33;;;;;;;10.32;4.97;;;11.90;99.90;;;;;;5049176;28;20033;-79
2023/05/08 06:12:59;;;;;;;9.13;3.88;;;11.90;99.90;;;;;;5054622;28;20032;-79
2023/05/08 06:15:25;;;;;;;9.48;4.55;;;12.10;99.90;;;;;;5063562;28;20047;-79
2023/05/08 06:17:51;;;;;;;7.40;4.50;;;12.50;99.90;;;;;;5075475;28;20037;-79
2023/05/08 06:20:17;;;;;;;9.15;4.55;;;13.00;99.90;;;;;;5065772;28;20055;-79
2023/05/08 06:22:43;;;;;;;8.93;3.83;;;13.50;99.90;;;;;;5063319;28;20541;-79
2023/05/08 06:25:09;;;;;;;9.05;4.55;;;13.80;99.90;;;;;;5064378;28;20064;-79
2023/05/08 06:27:35;;;;;;;11.25;4.60;;;14.10;99.90;;;;;;5075310;28;20515;-77
2023/05/08 06:30:03;;;;;;;8.02;4.72;;;14.80;99.90;;;;;;5062424;28;20086;-78
2023/05/08 06:32:29;;;;;;;8.70;4.60;;;15.60;99.90;;;;;;5058153;28;20124;-78
2023/05/08 06:34:54;;;;;;;8.88;4.63;;;16.30;99.90;;;;;;5064760;28;20120;-79
2023/05/08 06:37:20;;;;;;;7.57;4.40;;;16.70;99.90;;;;;;5061866;28;20044;-79
2023/05/08 06:39:46;;;;;;;7.25;4.28;;;16.60;99.90;;;;;;5095278;28;20039;-79
2023/05/08 06:42:11;;;;;;;6.72;3.70;;;16.20;99.90;;;;;;5063741;28;20047;-79
2023/05/08 06:44:37;;;;;;;7.30;4.43;;;15.80;99.90;;;;;;5062687;28;20040;-80
2023/05/08 06:47:02;;;;;;;7.80;4.13;;;15.40;99.90;;;;;;5061481;28;20041;-79
2023/05/08 06:49:28;;;;;;;7.28;3.72;;;15.10;99.90;;;;;;5061767;28;20037;-79
2023/05/08 06:51:54;;;;;;;7.63;3.80;;;14.80;99.90;;;;;;5043464;28;20094;-79
2023/05/08 06:54:19;;;;;;;8.10;4.22;;;14.60;99.90;;;;;;5044032;28;20801;-79
2023/05/08 06:56:45;;;;;;;8.63;4.55;;;14.50;99.90;;;;;;5052237;28;21517;-79
2023/05/08 06:59:10;;;;;;;7.95;4.03;;;14.30;99.90;;;;;;5087416;28;20036;-79
2023/05/08 07:01:36;;;;;;;7.75;4.10;;;14.20;99.90;;;;;;5053534;28;20051;-79
2023/05/08 07:04:02;;;;;;;7.32;4.13;;;14.10;99.90;;;;;;5074915;28;20064;-79
2023/05/08 07:06:29;;;;;;;7.57;3.88;;;13.90;99.90;;;;;;5044087;28;20040;-79
2023/05/08 07:08:55;;;;;;;8.40;4.07;;;13.90;99.90;;;;;;5059929;28;20041;-79
2023/05/08 07:11:21;;;;;;;9.05;5.00;;;13.90;99.90;;;;;;5078589;28;20036;-79
2023/05/08 07:13:47;;;;;;;7.55;3.75;;;13.90;99.90;;;;;;5044160;28;20036;-79
2023/05/08 07:16:13;;;;;;;11.57;4.70;;;13.90;99.90;;;;;;5058979;28;20090;-80
2023/05/08 07:18:39;;;;;;;7.75;3.90;;;13.90;99.90;;;;;;5054630;28;20551;-79
2023/05/08 07:21:04;;;;;;;9.00;3.83;;;13.80;99.90;;;;;;5055900;28;21349;-79
2023/05/08 07:23:30;;;;;;;9.20;4.57;;;13.80;99.90;;;;;;5057899;28;20060;-79
2023/05/08 07:25:56;;;;;;;7.78;4.55;;;13.80;99.90;;;;;;5059548;28;20051;-78
2023/05/08 07:28:22;;;;;;;7.38;3.92;;;13.80;99.90;;;;;;5073830;28;20032;-79
2023/05/08 07:30:48;;;;;;;8.43;4.30;;;13.80;99.90;;;;;;5054776;28;20540;-79
2023/05/08 07:33:14;;;;;;;8.20;4.80;;;13.90;99.90;;;;;;5052860;28;20129;-79
2023/05/08 07:35:40;;;;;;;8.63;4.50;;;13.90;99.90;;;;;;5058623;28;20036;-79
2023/05/08 07:38:06;;;;;;;10.45;4.45;;;13.80;99.90;;;;;;5060880;28;20040;-79
2023/05/08 07:40:31;;;;;;;9.65;4.70;;;13.90;99.90;;;;;;5087886;28;20048;-78
2023/05/08 07:42:57;;;;;;;8.23;4.50;;;14.00;99.90;;;;;;5060563;28;20048;-79
2023/05/08 07:45:23;;;;;;;9.10;4.55;;;14.10;99.90;;;;;;5055087;28;20043;-79
2023/05/08 07:47:56;;;;;;;9.05;4.57;;;14.10;99.90;;;;;;5055722;28;20032;-79
2023/05/08 07:50:23;;;;;;;8.07;5.10;;;14.20;99.90;;;;;;5084579;28;20072;-79
2023/05/08 07:52:49;;;;;;;10.35;4.60;;;14.30;99.90;;;;;;5062439;28;20211;-79
2023/05/08 07:55:16;;;;;;;8.20;4.45;;;14.30;99.90;;;;;;5041759;28;20041;-79
2023/05/08 07:57:43;;;;;;;8.32;4.15;;;14.40;99.90;;;;;;5042516;28;20036;-79
2023/05/08 08:00:11;;;;;;;8.57;4.07;;;14.40;99.90;;;;;;5054892;28;20127;-80
2023/05/08 08:02:37;;;;;;;8.73;4.35;;;14.50;99.90;;;;;;5058141;28;20490;-80
2023/05/08 08:05:03;;;;;;;9.80;4.03;;;14.50;99.90;;;;;;5057295;28;20048;-79
2023/05/08 08:07:31;;;;;;;10.13;4.97;;;14.60;99.90;;;;;;5055310;28;20052;-79
2023/05/08 08:09:57;;;;;;;8.95;4.93;;;14.60;99.90;;;;;;5085859;28;20045;-79
2023/05/08 08:12:23;;;;;;;8.38;4.70;;;14.70;99.90;;;;;;5057565;28;20040;-79
2023/05/08 08:14:48;;;;;;;10.18;5.15;;;14.80;99.90;;;;;;5057785;28;20040;-79
2023/05/08 08:17:14;;;;;;;8.80;4.88;;;14.80;99.90;;;;;;5039606;28;20033;-79
2023/05/08 08:19:40;;;;;;;10.38;4.85;;;14.80;99.90;;;;;;5055468;28;20085;-80
2023/05/08 08:22:06;;;;;;;10.30;5.38;;;14.80;99.90;;;;;;5043808;28;20055;-79
2023/05/08 08:24:31;;;;;;;10.02;4.90;;;14.80;99.90;;;;;;5058530;28;20052;-79
2023/05/08 08:26:57;;;;;;;9.43;4.97;;;14.80;99.90;;;;;;5057385;28;20147;-80
2023/05/08 08:29:23;;;;;;;9.18;4.80;;;14.80;99.90;;;;;;5030750;28;20102;-79
2023/05/08 08:31:48;;;;;;;8.45;5.00;;;14.80;99.90;;;;;;5056367;28;20498;-79
2023/05/08 08:34:14;;;;;;;11.35;5.00;;;14.70;99.90;;;;;;5089169;28;20490;-79
2023/05/08 08:36:39;;;;;;;9.23;4.70;;;14.80;99.90;;;;;;5039549;28;20054;-79
2023/05/08 08:39:05;;;;;;;10.07;5.28;;;14.80;99.90;;;;;;5085546;28;20129;-79
2023/05/08 08:41:31;;;;;;;9.77;5.07;;;14.90;99.90;;;;;;5051995;28;20040;-79
2023/05/08 08:43:57;;;;;;;10.55;5.20;;;14.90;99.90;;;;;;5055479;28;20051;-80
2023/05/08 08:46:26;;;;;;;10.18;5.18;;;15.00;99.90;;;;;;5057423;28;20040;-79
2023/05/08 08:48:54;;;;;;;10.48;5.03;;;15.10;99.90;;;;;;5060688;28;20036;-79
2023/05/08 08:51:30;;;;;;;10.05;5.28;;;15.10;99.90;;;;;;5045431;28;20025;-79
2023/05/08 08:54:12;;;;;;;9.15;5.10;;;15.10;99.90;;;;;;5062007;28;20401;-79
2023/05/08 08:56:43;;;;;;;9.05;4.90;;;15.20;99.90;;;;;;5053255;28;20036;-80
2023/05/08 08:59:12;;;;;;;10.93;5.13;;;15.30;99.90;;;;;;5038027;28;20230;-79
2023/05/08 09:01:43;;;;;;;11.93;5.70;;;15.30;99.90;;;;;;5060652;28;20090;-79
2023/05/08 09:04:08;;;;;;;11.32;5.90;;;15.30;99.90;;;;;;5038719;28;20052;-79
2023/05/08 09:06:37;;;;;;;12.18;5.93;;;15.30;99.90;;;;;;5057993;28;20252;-78
2023/05/08 09:09:04;;;;;;;10.05;4.90;;;15.30;99.90;;;;;;5056158;28;20705;-79
2023/05/08 09:11:30;;;;;;;10.38;5.28;;;15.40;99.90;;;;;;5062336;28;20704;-79
2023/05/08 09:13:56;;;;;;;9.63;6.00;;;15.40;99.90;;;;;;5055630;28;20036;-79
2023/05/08 09:16:23;;;;;;;10.65;5.57;;;15.40;99.90;;;;;;5055895;28;20076;-79
2023/05/08 09:18:49;;;;;;;10.13;5.45;;;15.40;99.90;;;;;;5037756;28;20048;-75
2023/05/08 09:21:14;;;;;;;10.10;5.32;;;15.40;99.90;;;;;;5036840;28;20037;-76
2023/05/08 09:24:02;;;;;;;12.25;5.53;;;15.40;99.90;;;;;;5039517;28;20146;-77
2023/05/08 09:26:31;;;;;;;10.13;4.97;;;15.50;99.90;;;;;;5044579;28;20075;-75
2023/05/08 09:29:17;;;;;;;11.75;5.45;;;15.50;99.90;;;;;;5059316;28;20037;-75
2023/05/08 09:31:46;;;;;;;;;;;15.50;99.90;;;;;;5061973;28;20390;-76
2023/05/08 09:34:29;;;;;;;12.15;5.72;;;15.50;99.90;;;;;;5059414;28;19929;-78
2023/05/08 09:37:15;;;;;;;12.80;6.03;;;15.50;99.90;;;;;;5042918;28;20082;-76
2023/05/08 09:39:42;;;;;;;10.27;5.40;;;15.50;99.90;;;;;;5060912;28;20528;-77
2023/05/08 09:42:08;;;;;;;10.90;4.88;;;15.60;99.90;;;;;;5043080;28;20036;-77
2023/05/08 09:44:48;;;;;;;11.10;5.50;;;15.60;99.90;;;;;;5062821;28;20456;-76
2023/05/08 09:47:16;;;;;;;10.80;5.88;;;15.70;99.90;;;;;;5044332;28;20090;-77
2023/05/08 09:49:55;;;;;;;10.50;5.78;;;15.70;99.90;;;;;;5057792;28;20033;-77
2023/05/08 09:52:21;;;;;;;11.50;6.20;;;15.70;99.90;;;;;;5045832;28;20528;-76
2023/05/08 09:54:57;;;;;;;10.00;4.75;;;15.70;99.90;;;;;;5066534;28;20420;-77
2023/05/08 09:57:23;;;;;;;10.57;5.47;;;15.80;99.90;;;;;;5093402;28;20036;-76
2023/05/08 09:59:49;;;;;;;11.25;6.18;;;15.80;99.90;;;;;;5058459;28;20041;-77
2023/05/08 10:02:16;;;;;;;9.70;5.18;;;15.80;99.90;;;;;;5055961;28;20585;-78
2023/05/08 10:04:41;;;;;;;11.98;6.13;;;15.80;99.90;;;;;;5039235;28;20271;-79
2023/05/08 10:07:07;;;;;;;9.98;5.72;;;15.90;99.90;;;;;;5041506;28;20118;-79
2023/05/08 10:09:33;;;;;;;10.82;5.68;;;16.00;99.90;;;;;;5043458;28;20037;-79
2023/05/08 10:11:58;;;;;;;10.68;5.60;;;16.00;99.90;;;;;;5056566;28;20561;-79
2023/05/08 10:14:24;;;;;;;11.45;5.15;;;16.00;99.90;;;;;;5058281;28;20390;-79
2023/05/08 10:16:53;;;;;;;11.90;5.93;;;16.00;99.90;;;;;;5055756;28;20528;-79
2023/05/08 10:19:24;;;;;;;11.82;5.25;;;16.10;99.90;;;;;;5057031;28;20036;-80
2023/05/08 10:21:52;;;;;;;10.82;5.72;;;16.10;99.90;;;;;;5057199;28;20044;-79
2023/05/08 10:24:26;;;;;;;12.13;6.00;;;16.20;99.90;;;;;;5069999;28;20496;-79
2023/05/08 10:27:15;;;;;;;10.20;5.20;;;16.20;99.90;;;;;;5087939;28;20586;-79
2023/05/08 10:29:52;;;;;;;10.38;5.55;;;16.30;99.90;;;;;;5048329;28;20051;-79
2023/05/08 10:32:19;;;;;;;11.02;5.35;;;16.30;99.90;;;;;;5058798;28;20045;-79
2023/05/08 10:35:02;;;;;;;10.60;5.65;;;16.40;99.90;;;;;;5046432;28;20036;-79
2023/05/08 10:37:28;;;;;;;11.63;5.72;;;16.40;99.90;;;;;;5063663;28;20052;-79
2023/05/08 10:39:56;;;;;;;13.70;6.40;;;16.40;99.90;;;;;;5059933;28;20052;-79
2023/05/08 10:42:22;;;;;;;9.77;5.25;;;16.50;99.90;;;;;;5052064;28;20047;-79
2023/05/08 10:44:49;;;;;;;12.35;6.35;;;16.50;99.90;;;;;;5041334;28;20514;-79
2023/05/08 10:47:39;;;;;;;10.75;5.07;;;16.60;99.90;;;;;;5055765;28;20037;-79
2023/05/08 10:50:15;;;;;;;9.85;5.10;;;16.70;99.90;;;;;;5076572;28;20036;-79
2023/05/08 10:52:53;;;;;;;10.45;5.00;;;16.80;99.90;;;;;;5071510;28;20525;-79
2023/05/08 10:55:27;;;;;;;9.30;5.07;;;16.90;99.90;;;;;;5077015;28;20021;-78
2023/05/08 10:58:12;;;;;;;11.35;5.13;;;16.90;99.90;;;;;;5057576;28;20033;-79
2023/05/08 11:00:55;;;;;;;10.88;5.35;;;16.90;99.90;;;;;;5057256;28;20119;-78
2023/05/08 11:03:26;;;;;;;10.65;5.10;;;16.90;99.90;;;;;;5074809;28;20114;-78
2023/05/08 11:05:53;;;;;;;10.98;5.80;;;17.00;99.90;;;;;;5038540;28;20866;-79
2023/05/08 11:08:26;;;;;;;11.68;6.18;;;17.00;99.90;;;;;;5056078;28;20119;-79
2023/05/08 11:11:00;;;;;;;10.48;5.22;;;17.00;99.90;;;;;;5057690;28;20039;-79
2023/05/08 11:13:50;;;;;;;9.77;5.17;;;17.10;99.90;;;;;;5060028;28;20037;-79
2023/05/08 11:16:17;;;;;;;11.40;5.90;;;17.10;99.90;;;;;;5041074;28;20803;-79
2023/05/08 11:19:14;;;;;;;11.65;5.95;;;17.20;99.90;;;;;;5058139;28;20127;-79
2023/05/08 11:22:15;;;;;;;11.77;5.70;;;17.20;99.90;;;;;;5069451;28;20128;-79
2023/05/08 11:25:03;;;;;;;10.15;5.38;;;17.40;99.90;;;;;;5043227;28;20032;-79
2023/05/08 11:27:35;;;;;;;11.02;5.25;;;17.50;99.90;;;;;;5057163;28;20082;-79
2023/05/08 11:30:24;;;;;;;11.57;5.90;;;17.50;99.90;;;;;;5058231;28;20042;-79
2023/05/08 11:33:08;;;;;;;8.98;4.53;;;17.60;99.90;;;;;;5058896;28;20033;-79
2023/05/08 11:35:56;;;;;;;12.00;5.75;;;17.80;99.90;;;;;;5088193;28;20037;-79
2023/05/08 11:38:33;;;;;;;9.35;4.95;;;18.00;99.90;;;;;;5070979;28;20204;-79
2023/05/08 11:41:04;;;;;;;9.80;5.00;;;18.10;99.90;;;;;;5039796;28;20052;-80
2023/05/08 11:43:36;;;;;;;8.70;4.95;;;18.20;99.90;;;;;;5073124;28;20072;-79
2023/05/08 11:46:04;;;;;;;9.30;4.45;;;18.20;99.90;;;;;;5055304;28;20395;-79
2023/05/08 11:48:31;;;;;;;9.95;4.70;;;18.10;99.90;;;;;;5037526;28;20126;-78
2023/05/08 11:50:59;;;;;;;6.93;3.38;;;18.20;99.90;;;;;;5057386;28;20032;-79
2023/05/08 11:53:24;;;;;;;9.13;4.05;;;18.20;99.90;;;;;;5056166;28;20037;-78
2023/05/08 11:55:53;;;;;;;8.93;4.05;;;18.30;99.90;;;;;;5087965;28;20074;-78
2023/05/08 11:58:20;;;;;;;5.95;3.50;;;18.20;99.90;;;;;;5059980;28;20037;-79
2023/05/08 12:00:47;;;;;;;9.35;5.50;;;18.20;99.90;;;;;;5059933;28;20067;-79
2023/05/08 12:03:19;;;;;;;10.45;4.78;;;18.20;99.90;;;;;;5059453;28;20130;-79
2023/05/08 12:05:45;;;;;;;10.65;4.78;;;18.20;99.90;;;;;;5040795;28;20048;-78
2023/05/08 12:08:13;;;;;;;9.82;5.00;;;18.20;99.90;;;;;;5057648;28;20157;-78
2023/05/08 12:10:58;;;;;;;8.20;3.83;;;18.10;99.90;;;;;;5056552;28;20033;-78
2023/05/08 12:13:28;;;;;;;;;;;18.20;99.90;;;;;;5055918;28;20540;-78
2023/05/08 12:15:56;;;;;;;8.98;4.55;;;18.20;99.90;;;;;;5069275;28;19916;-78
2023/05/08 12:18:22;;;;;;;9.68;5.25;;;18.30;99.90;;;;;;5048638;28;20384;-78
2023/05/08 12:20:59;;;;;;;9.00;4.63;;;18.30;99.90;;;;;;5053803;28;20050;-78
2023/05/08 12:23:26;;;;;;;9.20;4.43;;;18.30;99.90;;;;;;5036022;28;20074;-78
2023/05/08 12:25:53;;;;;;;10.98;4.90;;;18.30;99.90;;;;;;5048374;28;20040;-78
2023/05/08 12:28:19;;;;;;;10.50;5.22;;;18.40;99.90;;;;;;5056343;28;20487;-78
2023/05/08 12:30:45;;;;;;;8.93;4.57;;;18.50;99.90;;;;;;5035272;28;20666;-79
2023/05/08 12:33:11;;;;;;;9.23;4.97;;;18.60;99.90;;;;;;5054999;28;20040;-78
2023/05/08 12:35:38;;;;;;;10.65;5.18;;;18.60;99.90;;;;;;5037104;28;20044;-79
2023/05/08 12:38:06;;;;;;;8.90;4.70;;;18.60;99.90;;;;;;5076250;28;20587;-78
2023/05/08 12:40:41;;;;;;;10.57;5.38;;;18.60;99.90;;;;;;5086162;28;20055;-78
2023/05/08 12:43:07;;;;;;;11.05;6.40;;;18.60;99.90;;;;;;5041694;28;20045;-77
2023/05/08 12:45:38;;;;;;;11.00;6.10;;;18.50;99.90;;;;;;5038473;28;20028;-77
2023/05/08 12:48:09;;;;;;;11.48;6.15;;;18.50;99.90;;;;;;5057711;28;20127;-77
2023/05/08 12:50:40;;;;;;;10.75;5.70;;;18.60;99.90;;;;;;5039874;28;20036;-77
2023/05/08 12:53:10;;;;;;;10.32;5.50;;;18.70;99.90;;;;;;5037941;28;20163;-78
2023/05/08 12:55:37;;;;;;;10.77;5.43;;;18.90;99.90;;;;;;5055379;28;20039;-78